sensor_id;sensor_type;location;lat;lon;timestamp;P1;durP1;ratioP1;P2;durP2;ratioP2
41661;SDS011;27351;45.992;12.666;2022-12-07T00:01:30;10.75;;;6.32;;
41661;SDS011;27351;45.992;12.666;2022-12-07T00:03:56;11.07;;;6.65;;
41661;SDS011;27351;45.992;12.666;2022-12-07T00:06:26;9.80;;;5.37;;
41661;SDS011;27351;45.992;12.666;2022-12-07T00:08:52;9.10;;;5.55;;
41661;SDS011;27351;45.992;12.666;2022-12-07T00:11:19;7.73;;;4.97;;
41661;SDS011;27351;45.992;12.666;2022-12-07T00:13:45;8.65;;;4.63;;
41661;SDS011;27351;45.992;12.666;2022-12-07T00:16:12;8.93;;;4.95;;
41661;SDS011;27351;45.992;12.666;2022-12-07T00:18:38;9.70;;;4.97;;
41661;SDS011;27351;45.992;12.666;2022-12-07T00:21:06;8.18;;;4.28;;
41661;SDS011;27351;45.992;12.666;2022-12-07T00:23:32;6.43;;;4.28;;
41661;SDS011;27351;45.992;12.666;2022-12-07T00:26:07;8.07;;;4.20;;
41661;SDS011;27351;45.992;12.666;2022-12-07T00:28:34;8.20;;;5.25;;
41661;SDS011;27351;45.992;12.666;2022-12-07T00:31:00;8.60;;;5.27;;
41661;SDS011;27351;45.992;12.666;2022-12-07T00:33:26;9.30;;;5.53;;
41661;SDS011;27351;45.992;12.666;2022-12-07T00:35:57;9.75;;;5.40;;
41661;SDS011;27351;45.992;12.666;2022-12-07T00:38:23;10.48;;;5.90;;
41661;SDS011;27351;45.992;12.666;2022-12-07T00:40:59;9.98;;;5.53;;
41661;SDS011;27351;45.992;12.666;2022-12-07T00:43:24;10.32;;;5.65;;
41661;SDS011;27351;45.992;12.666;2022-12-07T00:45:50;9.70;;;5.65;;
41661;SDS011;27351;45.992;12.666;2022-12-07T00:48:16;8.40;;;5.53;;
41661;SDS011;27351;45.992;12.666;2022-12-07T00:50:42;9.33;;;5.93;;
41661;SDS011;27351;45.992;12.666;2022-12-07T00:53:07;9.53;;;5.23;;
41661;SDS011;27351;45.992;12.666;2022-12-07T00:55:34;8.68;;;5.38;;
41661;SDS011;27351;45.992;12.666;2022-12-07T00:57:59;8.57;;;4.47;;
41661;SDS011;27351;45.992;12.666;2022-12-07T01:00:25;9.38;;;5.45;;
41661;SDS011;27351;45.992;12.666;2022-12-07T01:02:51;9.57;;;5.93;;
41661;SDS011;27351;45.992;12.666;2022-12-07T01:05:17;10.07;;;5.38;;
41661;SDS011;27351;45.992;12.666;2022-12-07T01:07:43;9.43;;;5.38;;
41661;SDS011;27351;45.992;12.666;2022-12-07T01:10:08;8.77;;;5.70;;
41661;SDS011;27351;45.992;12.666;2022-12-07T01:12:34;9.53;;;5.30;;
41661;SDS011;27351;45.992;12.666;2022-12-07T01:15:00;9.57;;;5.45;;
41661;SDS011;27351;45.992;12.666;2022-12-07T01:17:25;8.43;;;5.55;;
41661;SDS011;27351;45.992;12.666;2022-12-07T01:19:51;8.88;;;4.95;;
41661;SDS011;27351;45.992;12.666;2022-12-07T01:22:17;9.50;;;5.78;;
41661;SDS011;27351;45.992;12.666;2022-12-07T01:24:42;9.17;;;5.70;;
41661;SDS011;27351;45.992;12.666;2022-12-07T01:27:08;9.00;;;4.83;;
41661;SDS011;27351;45.992;12.666;2022-12-07T01:29:33;8.20;;;5.17;;
41661;SDS011;27351;45.992;12.666;2022-12-07T01:31:59;8.80;;;5.10;;
41661;SDS011;27351;45.992;12.666;2022-12-07T01:34:25;8.77;;;5.43;;
41661;SDS011;27351;45.992;12.666;2022-12-07T01:36:50;7.87;;;4.93;;
41661;SDS011;27351;45.992;12.666;2022-12-07T01:39:16;8.35;;;5.05;;
41661;SDS011;27351;45.992;12.666;2022-12-07T01:41:41;8.82;;;4.63;;
41661;SDS011;27351;45.992;12.666;2022-12-07T01:44:10;8.05;;;4.68;;
41661;SDS011;27351;45.992;12.666;2022-12-07T01:46:36;8.93;;;4.72;;
41661;SDS011;27351;45.992;12.666;2022-12-07T01:49:02;8.27;;;5.37;;
41661;SDS011;27351;45.992;12.666;2022-12-07T01:51:29;8.27;;;4.87;;
41661;SDS011;27351;45.992;12.666;2022-12-07T01:53:55;8.38;;;4.45;;
41661;SDS011;27351;45.992;12.666;2022-12-07T01:56:20;8.23;;;4.22;;
41661;SDS011;27351;45.992;12.666;2022-12-07T01:58:47;8.38;;;4.50;;
41661;SDS011;27351;45.992;12.666;2022-12-07T02:01:13;8.40;;;4.78;;
41661;SDS011;27351;45.992;12.666;2022-12-07T02:03:39;7.28;;;4.10;;
41661;SDS011;27351;45.992;12.666;2022-12-07T02:06:05;8.60;;;4.75;;
41661;SDS011;27351;45.992;12.666;2022-12-07T02:08:31;8.20;;;4.28;;
41661;SDS011;27351;45.992;12.666;2022-12-07T02:10:57;8.23;;;4.10;;
41661;SDS011;27351;45.992;12.666;2022-12-07T02:13:25;7.07;;;3.70;;
41661;SDS011;27351;45.992;12.666;2022-12-07T02:20:54;7.55;;;3.55;;
41661;SDS011;27351;45.992;12.666;2022-12-07T02:26:32;5.50;;;3.08;;
41661;SDS011;27351;45.992;12.666;2022-12-07T02:31:40;5.28;;;2.70;;
41661;SDS011;27351;45.992;12.666;2022-12-07T02:34:18;5.65;;;2.83;;
41661;SDS011;27351;45.992;12.666;2022-12-07T02:36:46;5.88;;;3.10;;
41661;SDS011;27351;45.992;12.666;2022-12-07T02:42:13;5.95;;;3.10;;
41661;SDS011;27351;45.992;12.666;2022-12-07T02:44:40;5.75;;;3.00;;
41661;SDS011;27351;45.992;12.666;2022-12-07T02:47:07;5.50;;;2.80;;
41661;SDS011;27351;45.992;12.666;2022-12-07T02:49:35;5.18;;;2.80;;
41661;SDS011;27351;45.992;12.666;2022-12-07T02:52:01;5.23;;;2.63;;
41661;SDS011;27351;45.992;12.666;2022-12-07T02:54:27;4.65;;;2.58;;
41661;SDS011;27351;45.992;12.666;2022-12-07T02:57:05;5.60;;;3.13;;
41661;SDS011;27351;45.992;12.666;2022-12-07T02:59:53;6.05;;;2.85;;
41661;SDS011;27351;45.992;12.666;2022-12-07T03:07:56;7.43;;;2.60;;
41661;SDS011;27351;45.992;12.666;2022-12-07T03:10:32;4.88;;;2.67;;
41661;SDS011;27351;45.992;12.666;2022-12-07T03:18:14;7.47;;;2.83;;
41661;SDS011;27351;45.992;12.666;2022-12-07T03:20:42;5.88;;;3.00;;
41661;SDS011;27351;45.992;12.666;2022-12-07T03:23:09;5.72;;;3.15;;
41661;SDS011;27351;45.992;12.666;2022-12-07T03:25:38;8.00;;;2.80;;
41661;SDS011;27351;45.992;12.666;2022-12-07T03:28:05;5.43;;;2.80;;
41661;SDS011;27351;45.992;12.666;2022-12-07T03:30:33;4.25;;;2.72;;
41661;SDS011;27351;45.992;12.666;2022-12-07T03:33:06;4.93;;;2.78;;
41661;SDS011;27351;45.992;12.666;2022-12-07T03:35:37;6.43;;;3.00;;
41661;SDS011;27351;45.992;12.666;2022-12-07T03:40:43;5.90;;;2.83;;
41661;SDS011;27351;45.992;12.666;2022-12-07T03:43:10;6.25;;;3.33;;
41661;SDS011;27351;45.992;12.666;2022-12-07T03:45:40;5.35;;;3.00;;
41661;SDS011;27351;45.992;12.666;2022-12-07T03:48:08;5.85;;;2.80;;
41661;SDS011;27351;45.992;12.666;2022-12-07T03:50:49;4.97;;;2.92;;
41661;SDS011;27351;45.992;12.666;2022-12-07T03:53:18;5.45;;;2.88;;
41661;SDS011;27351;45.992;12.666;2022-12-07T03:55:45;5.68;;;3.20;;
41661;SDS011;27351;45.992;12.666;2022-12-07T03:58:15;8.50;;;3.10;;
41661;SDS011;27351;45.992;12.666;2022-12-07T04:00:42;5.80;;;2.80;;
41661;SDS011;27351;45.992;12.666;2022-12-07T04:03:08;4.30;;;2.85;;
41661;SDS011;27351;45.992;12.666;2022-12-07T04:05:34;7.50;;;3.38;;
41661;SDS011;27351;45.992;12.666;2022-12-07T04:08:00;4.90;;;2.72;;
41661;SDS011;27351;45.992;12.666;2022-12-07T04:10:25;5.87;;;3.20;;
41661;SDS011;27351;45.992;12.666;2022-12-07T04:12:51;6.43;;;2.80;;
41661;SDS011;27351;45.992;12.666;2022-12-07T04:15:16;5.43;;;2.70;;
41661;SDS011;27351;45.992;12.666;2022-12-07T04:17:42;5.77;;;2.80;;
41661;SDS011;27351;45.992;12.666;2022-12-07T04:20:08;5.40;;;2.67;;
41661;SDS011;27351;45.992;12.666;2022-12-07T04:22:33;4.40;;;2.70;;
41661;SDS011;27351;45.992;12.666;2022-12-07T04:24:59;4.07;;;2.43;;
41661;SDS011;27351;45.992;12.666;2022-12-07T04:27:24;5.63;;;2.73;;
41661;SDS011;27351;45.992;12.666;2022-12-07T04:29:50;3.60;;;1.93;;
41661;SDS011;27351;45.992;12.666;2022-12-07T04:32:15;3.43;;;2.00;;
41661;SDS011;27351;45.992;12.666;2022-12-07T04:34:41;3.57;;;2.17;;
41661;SDS011;27351;45.992;12.666;2022-12-07T04:37:06;3.50;;;2.10;;
41661;SDS011;27351;45.992;12.666;2022-12-07T04:39:33;3.70;;;2.15;;
41661;SDS011;27351;45.992;12.666;2022-12-07T04:41:58;4.32;;;2.30;;
41661;SDS011;27351;45.992;12.666;2022-12-07T04:44:25;3.72;;;1.70;;
41661;SDS011;27351;45.992;12.666;2022-12-07T04:46:51;4.13;;;2.38;;
41661;SDS011;27351;45.992;12.666;2022-12-07T04:49:17;4.00;;;2.05;;
41661;SDS011;27351;45.992;12.666;2022-12-07T04:51:43;3.13;;;1.85;;
41661;SDS011;27351;45.992;12.666;2022-12-07T04:54:08;3.10;;;1.95;;
41661;SDS011;27351;45.992;12.666;2022-12-07T04:56:35;3.93;;;1.70;;
41661;SDS011;27351;45.992;12.666;2022-12-07T04:59:01;3.63;;;1.92;;
41661;SDS011;27351;45.992;12.666;2022-12-07T05:01:27;6.10;;;2.30;;
41661;SDS011;27351;45.992;12.666;2022-12-07T05:03:53;4.17;;;2.13;;
41661;SDS011;27351;45.992;12.666;2022-12-07T05:06:18;4.07;;;2.30;;
41661;SDS011;27351;45.992;12.666;2022-12-07T05:08:44;3.33;;;2.15;;
41661;SDS011;27351;45.992;12.666;2022-12-07T05:11:09;5.65;;;2.15;;
41661;SDS011;27351;45.992;12.666;2022-12-07T05:13:55;3.58;;;2.08;;
41661;SDS011;27351;45.992;12.666;2022-12-07T05:16:21;5.78;;;3.15;;
41661;SDS011;27351;45.992;12.666;2022-12-07T05:18:46;6.47;;;3.50;;
41661;SDS011;27351;45.992;12.666;2022-12-07T05:21:12;4.77;;;2.73;;
41661;SDS011;27351;45.992;12.666;2022-12-07T05:23:37;4.93;;;2.40;;
41661;SDS011;27351;45.992;12.666;2022-12-07T05:26:03;4.50;;;2.30;;
41661;SDS011;27351;45.992;12.666;2022-12-07T05:28:28;4.70;;;2.77;;
41661;SDS011;27351;45.992;12.666;2022-12-07T05:30:53;6.43;;;2.83;;
41661;SDS011;27351;45.992;12.666;2022-12-07T05:33:19;5.20;;;2.37;;
41661;SDS011;27351;45.992;12.666;2022-12-07T05:35:44;5.17;;;3.00;;
41661;SDS011;27351;45.992;12.666;2022-12-07T05:38:10;11.93;;;5.23;;
41661;SDS011;27351;45.992;12.666;2022-12-07T05:40:36;12.13;;;5.93;;
41661;SDS011;27351;45.992;12.666;2022-12-07T05:43:02;13.15;;;6.45;;
41661;SDS011;27351;45.992;12.666;2022-12-07T05:45:27;4.90;;;2.38;;
41661;SDS011;27351;45.992;12.666;2022-12-07T05:47:53;6.00;;;2.20;;
41661;SDS011;27351;45.992;12.666;2022-12-07T05:50:18;5.07;;;2.70;;
41661;SDS011;27351;45.992;12.666;2022-12-07T05:52:58;5.10;;;2.83;;
41661;SDS011;27351;45.992;12.666;2022-12-07T05:55:24;6.13;;;2.75;;
41661;SDS011;27351;45.992;12.666;2022-12-07T05:57:49;3.38;;;1.90;;
41661;SDS011;27351;45.992;12.666;2022-12-07T06:00:34;4.20;;;2.20;;
41661;SDS011;27351;45.992;12.666;2022-12-07T06:02:59;3.43;;;2.00;;
41661;SDS011;27351;45.992;12.666;2022-12-07T06:05:25;3.43;;;1.90;;
41661;SDS011;27351;45.992;12.666;2022-12-07T06:07:50;5.90;;;3.07;;
41661;SDS011;27351;45.992;12.666;2022-12-07T06:10:16;4.10;;;2.38;;
41661;SDS011;27351;45.992;12.666;2022-12-07T06:12:41;3.05;;;1.73;;
41661;SDS011;27351;45.992;12.666;2022-12-07T06:15:09;4.18;;;2.10;;
41661;SDS011;27351;45.992;12.666;2022-12-07T06:17:35;5.17;;;2.60;;
41661;SDS011;27351;45.992;12.666;2022-12-07T06:20:02;4.65;;;2.47;;
41661;SDS011;27351;45.992;12.666;2022-12-07T06:22:28;3.60;;;2.23;;
41661;SDS011;27351;45.992;12.666;2022-12-07T06:24:53;3.77;;;1.97;;
41661;SDS011;27351;45.992;12.666;2022-12-07T06:27:19;3.55;;;2.13;;
41661;SDS011;27351;45.992;12.666;2022-12-07T06:29:44;3.85;;;2.58;;
41661;SDS011;27351;45.992;12.666;2022-12-07T06:32:10;4.13;;;2.60;;
41661;SDS011;27351;45.992;12.666;2022-12-07T06:34:36;3.30;;;2.20;;
41661;SDS011;27351;45.992;12.666;2022-12-07T06:37:02;4.68;;;2.15;;
41661;SDS011;27351;45.992;12.666;2022-12-07T06:39:28;5.90;;;2.40;;
41661;SDS011;27351;45.992;12.666;2022-12-07T06:41:54;3.90;;;2.10;;
41661;SDS011;27351;45.992;12.666;2022-12-07T06:44:19;3.57;;;2.20;;
41661;SDS011;27351;45.992;12.666;2022-12-07T06:46:45;4.68;;;2.45;;
41661;SDS011;27351;45.992;12.666;2022-12-07T06:49:11;3.55;;;2.10;;
41661;SDS011;27351;45.992;12.666;2022-12-07T06:51:37;4.40;;;2.35;;
41661;SDS011;27351;45.992;12.666;2022-12-07T06:54:09;4.33;;;2.47;;
41661;SDS011;27351;45.992;12.666;2022-12-07T06:56:35;5.35;;;2.83;;
41661;SDS011;27351;45.992;12.666;2022-12-07T06:59:01;5.63;;;3.20;;
41661;SDS011;27351;45.992;12.666;2022-12-07T07:01:27;4.88;;;2.10;;
41661;SDS011;27351;45.992;12.666;2022-12-07T07:03:53;7.63;;;4.10;;
41661;SDS011;27351;45.992;12.666;2022-12-07T07:06:18;11.13;;;5.57;;
41661;SDS011;27351;45.992;12.666;2022-12-07T07:08:44;11.90;;;6.00;;
41661;SDS011;27351;45.992;12.666;2022-12-07T07:11:12;9.37;;;5.07;;
41661;SDS011;27351;45.992;12.666;2022-12-07T07:13:38;10.75;;;5.78;;
41661;SDS011;27351;45.992;12.666;2022-12-07T07:16:03;9.53;;;5.30;;
41661;SDS011;27351;45.992;12.666;2022-12-07T07:18:29;7.18;;;3.88;;
41661;SDS011;27351;45.992;12.666;2022-12-07T07:20:55;5.17;;;3.03;;
41661;SDS011;27351;45.992;12.666;2022-12-07T07:23:21;6.57;;;3.20;;
41661;SDS011;27351;45.992;12.666;2022-12-07T07:25:47;4.50;;;2.70;;
41661;SDS011;27351;45.992;12.666;2022-12-07T07:28:13;6.25;;;2.63;;
41661;SDS011;27351;45.992;12.666;2022-12-07T07:30:38;5.40;;;3.15;;
41661;SDS011;27351;45.992;12.666;2022-12-07T07:33:04;6.35;;;3.38;;
41661;SDS011;27351;45.992;12.666;2022-12-07T07:35:30;5.72;;;3.20;;
41661;SDS011;27351;45.992;12.666;2022-12-07T07:37:56;6.30;;;3.20;;
41661;SDS011;27351;45.992;12.666;2022-12-07T07:40:25;5.23;;;2.90;;
41661;SDS011;27351;45.992;12.666;2022-12-07T07:42:52;7.53;;;3.45;;
41661;SDS011;27351;45.992;12.666;2022-12-07T07:45:18;6.57;;;2.90;;
41661;SDS011;27351;45.992;12.666;2022-12-07T07:47:44;7.28;;;2.90;;
41661;SDS011;27351;45.992;12.666;2022-12-07T07:50:09;6.05;;;3.10;;
41661;SDS011;27351;45.992;12.666;2022-12-07T07:52:35;7.10;;;3.00;;
41661;SDS011;27351;45.992;12.666;2022-12-07T07:55:01;5.47;;;2.93;;
41661;SDS011;27351;45.992;12.666;2022-12-07T07:57:26;6.13;;;3.30;;
41661;SDS011;27351;45.992;12.666;2022-12-07T07:59:52;5.47;;;2.97;;
41661;SDS011;27351;45.992;12.666;2022-12-07T08:02:19;7.50;;;2.95;;
41661;SDS011;27351;45.992;12.666;2022-12-07T08:04:47;5.03;;;2.67;;
41661;SDS011;27351;45.992;12.666;2022-12-07T08:07:13;6.45;;;3.20;;
41661;SDS011;27351;45.992;12.666;2022-12-07T08:09:38;8.05;;;3.35;;
41661;SDS011;27351;45.992;12.666;2022-12-07T08:12:07;5.70;;;2.58;;
41661;SDS011;27351;45.992;12.666;2022-12-07T08:14:33;5.72;;;3.05;;
41661;SDS011;27351;45.992;12.666;2022-12-07T08:16:59;12.07;;;6.85;;
41661;SDS011;27351;45.992;12.666;2022-12-07T08:19:25;9.63;;;6.13;;
41661;SDS011;27351;45.992;12.666;2022-12-07T08:21:50;8.90;;;5.10;;
41661;SDS011;27351;45.992;12.666;2022-12-07T08:24:16;7.17;;;4.07;;
41661;SDS011;27351;45.992;12.666;2022-12-07T08:26:41;7.63;;;3.63;;
41661;SDS011;27351;45.992;12.666;2022-12-07T08:29:07;7.40;;;3.80;;
41661;SDS011;27351;45.992;12.666;2022-12-07T08:31:32;6.30;;;3.63;;
41661;SDS011;27351;45.992;12.666;2022-12-07T08:33:58;6.37;;;4.00;;
41661;SDS011;27351;45.992;12.666;2022-12-07T08:36:24;8.27;;;5.27;;
41661;SDS011;27351;45.992;12.666;2022-12-07T08:38:49;6.33;;;3.20;;
41661;SDS011;27351;45.992;12.666;2022-12-07T08:41:15;6.80;;;3.30;;
41661;SDS011;27351;45.992;12.666;2022-12-07T08:43:41;6.43;;;3.40;;
41661;SDS011;27351;45.992;12.666;2022-12-07T08:46:11;5.45;;;3.20;;
41661;SDS011;27351;45.992;12.666;2022-12-07T08:48:58;5.57;;;3.20;;
41661;SDS011;27351;45.992;12.666;2022-12-07T08:51:24;6.45;;;3.45;;
41661;SDS011;27351;45.992;12.666;2022-12-07T08:53:51;7.90;;;3.58;;
41661;SDS011;27351;45.992;12.666;2022-12-07T08:56:17;16.65;;;9.00;;
41661;SDS011;27351;45.992;12.666;2022-12-07T08:58:43;12.02;;;6.05;;
41661;SDS011;27351;45.992;12.666;2022-12-07T09:01:09;11.53;;;5.93;;
41661;SDS011;27351;45.992;12.666;2022-12-07T09:03:35;9.73;;;5.47;;
41661;SDS011;27351;45.992;12.666;2022-12-07T09:06:00;8.95;;;4.43;;
41661;SDS011;27351;45.992;12.666;2022-12-07T09:08:28;6.63;;;3.50;;
41661;SDS011;27351;45.992;12.666;2022-12-07T09:10:55;5.43;;;2.95;;
41661;SDS011;27351;45.992;12.666;2022-12-07T09:13:20;6.20;;;2.90;;
41661;SDS011;27351;45.992;12.666;2022-12-07T09:15:46;5.75;;;3.25;;
41661;SDS011;27351;45.992;12.666;2022-12-07T09:18:11;5.68;;;3.17;;
41661;SDS011;27351;45.992;12.666;2022-12-07T09:20:37;7.20;;;3.17;;
41661;SDS011;27351;45.992;12.666;2022-12-07T09:23:05;5.40;;;2.80;;
41661;SDS011;27351;45.992;12.666;2022-12-07T09:25:30;5.88;;;3.17;;
41661;SDS011;27351;45.992;12.666;2022-12-07T09:27:56;6.57;;;3.50;;
41661;SDS011;27351;45.992;12.666;2022-12-07T09:30:22;6.30;;;3.05;;
41661;SDS011;27351;45.992;12.666;2022-12-07T09:32:48;5.50;;;2.90;;
41661;SDS011;27351;45.992;12.666;2022-12-07T09:35:14;6.57;;;2.97;;
41661;SDS011;27351;45.992;12.666;2022-12-07T09:37:39;6.33;;;3.00;;
41661;SDS011;27351;45.992;12.666;2022-12-07T09:40:05;7.37;;;2.93;;
41661;SDS011;27351;45.992;12.666;2022-12-07T09:42:36;5.13;;;2.70;;
41661;SDS011;27351;45.992;12.666;2022-12-07T09:45:04;5.90;;;2.92;;
41661;SDS011;27351;45.992;12.666;2022-12-07T09:47:30;5.25;;;2.72;;
41661;SDS011;27351;45.992;12.666;2022-12-07T09:50:06;4.90;;;2.40;;
41661;SDS011;27351;45.992;12.666;2022-12-07T09:52:33;5.00;;;2.33;;
41661;SDS011;27351;45.992;12.666;2022-12-07T09:54:58;5.13;;;2.47;;
41661;SDS011;27351;45.992;12.666;2022-12-07T09:57:31;5.47;;;2.60;;
41661;SDS011;27351;45.992;12.666;2022-12-07T09:59:59;6.13;;;2.80;;
41661;SDS011;27351;45.992;12.666;2022-12-07T10:05:01;5.28;;;2.60;;
41661;SDS011;27351;45.992;12.666;2022-12-07T10:07:29;4.95;;;2.90;;
41661;SDS011;27351;45.992;12.666;2022-12-07T10:09:54;5.63;;;2.65;;
41661;SDS011;27351;45.992;12.666;2022-12-07T10:12:20;4.97;;;2.50;;
41661;SDS011;27351;45.992;12.666;2022-12-07T10:15:02;5.37;;;2.83;;
41661;SDS011;27351;45.992;12.666;2022-12-07T10:17:39;5.22;;;2.55;;
41661;SDS011;27351;45.992;12.666;2022-12-07T10:20:25;6.33;;;3.03;;
41661;SDS011;27351;45.992;12.666;2022-12-07T10:22:55;5.55;;;2.60;;
41661;SDS011;27351;45.992;12.666;2022-12-07T10:25:22;5.05;;;2.00;;
41661;SDS011;27351;45.992;12.666;2022-12-07T10:30:32;3.72;;;1.88;;
41661;SDS011;27351;45.992;12.666;2022-12-07T10:32:58;4.10;;;1.60;;
41661;SDS011;27351;45.992;12.666;2022-12-07T10:35:25;3.10;;;1.60;;
41661;SDS011;27351;45.992;12.666;2022-12-07T10:37:51;4.25;;;1.55;;
41661;SDS011;27351;45.992;12.666;2022-12-07T10:40:27;2.60;;;1.45;;
41661;SDS011;27351;45.992;12.666;2022-12-07T10:43:03;2.55;;;1.50;;
41661;SDS011;27351;45.992;12.666;2022-12-07T10:45:30;3.25;;;1.45;;
41661;SDS011;27351;45.992;12.666;2022-12-07T10:47:59;2.28;;;1.20;;
41661;SDS011;27351;45.992;12.666;2022-12-07T10:52:57;2.40;;;1.20;;
41661;SDS011;27351;45.992;12.666;2022-12-07T11:06:10;2.37;;;1.43;;
41661;SDS011;27351;45.992;12.666;2022-12-07T11:08:56;3.33;;;1.57;;
41661;SDS011;27351;45.992;12.666;2022-12-07T11:11:35;3.13;;;1.50;;
41661;SDS011;27351;45.992;12.666;2022-12-07T11:14:15;3.38;;;1.50;;
41661;SDS011;27351;45.992;12.666;2022-12-07T11:16:49;4.28;;;1.98;;
41661;SDS011;27351;45.992;12.666;2022-12-07T11:21:48;4.23;;;2.27;;
41661;SDS011;27351;45.992;12.666;2022-12-07T11:24:16;5.37;;;2.10;;
41661;SDS011;27351;45.992;12.666;2022-12-07T11:26:58;5.00;;;1.70;;
41661;SDS011;27351;45.992;12.666;2022-12-07T11:32:22;2.20;;;1.63;;
41661;SDS011;27351;45.992;12.666;2022-12-07T11:37:28;4.10;;;1.50;;
41661;SDS011;27351;45.992;12.666;2022-12-07T11:39:57;3.28;;;1.45;;
41661;SDS011;27351;45.992;12.666;2022-12-07T11:42:26;3.00;;;1.30;;
41661;SDS011;27351;45.992;12.666;2022-12-07T11:45:03;3.53;;;1.40;;
41661;SDS011;27351;45.992;12.666;2022-12-07T11:50:03;3.37;;;1.50;;
41661;SDS011;27351;45.992;12.666;2022-12-07T11:52:45;3.20;;;1.40;;
41661;SDS011;27351;45.992;12.666;2022-12-07T11:55:19;1.60;;;0.98;;
41661;SDS011;27351;45.992;12.666;2022-12-07T11:57:48;1.35;;;0.80;;
41661;SDS011;27351;45.992;12.666;2022-12-07T12:00:17;1.90;;;0.90;;
41661;SDS011;27351;45.992;12.666;2022-12-07T12:02:44;1.63;;;0.90;;
41661;SDS011;27351;45.992;12.666;2022-12-07T12:07:38;2.15;;;0.90;;
41661;SDS011;27351;45.992;12.666;2022-12-07T12:10:14;1.75;;;0.80;;
41661;SDS011;27351;45.992;12.666;2022-12-07T12:22:45;2.20;;;0.80;;
41661;SDS011;27351;45.992;12.666;2022-12-07T12:25:23;1.75;;;0.90;;
41661;SDS011;27351;45.992;12.666;2022-12-07T12:27:50;1.60;;;0.80;;
41661;SDS011;27351;45.992;12.666;2022-12-07T12:30:25;1.63;;;0.73;;
41661;SDS011;27351;45.992;12.666;2022-12-07T12:32:51;2.00;;;0.93;;
41661;SDS011;27351;45.992;12.666;2022-12-07T12:35:20;1.40;;;0.73;;
41661;SDS011;27351;45.992;12.666;2022-12-07T12:37:46;1.58;;;0.85;;
41661;SDS011;27351;45.992;12.666;2022-12-07T12:42:47;3.47;;;0.95;;
41661;SDS011;27351;45.992;12.666;2022-12-07T12:45:21;1.67;;;0.95;;
41661;SDS011;27351;45.992;12.666;2022-12-07T12:55:43;1.70;;;1.10;;
41661;SDS011;27351;45.992;12.666;2022-12-07T13:00:44;13.88;;;5.60;;
41661;SDS011;27351;45.992;12.666;2022-12-07T13:03:24;3.72;;;1.50;;
41661;SDS011;27351;45.992;12.666;2022-12-07T13:06:16;1.75;;;1.00;;
41661;SDS011;27351;45.992;12.666;2022-12-07T13:08:37;1.70;;;1.20;;
41661;SDS011;27351;45.992;12.666;2022-12-07T13:13:49;3.17;;;1.27;;
41661;SDS011;27351;45.992;12.666;2022-12-07T13:18:41;2.42;;;0.98;;
41661;SDS011;27351;45.992;12.666;2022-12-07T13:23:34;2.40;;;1.00;;
41661;SDS011;27351;45.992;12.666;2022-12-07T13:33:57;2.00;;;0.95;;
41661;SDS011;27351;45.992;12.666;2022-12-07T13:36:24;2.05;;;1.00;;
41661;SDS011;27351;45.992;12.666;2022-12-07T13:38:51;2.30;;;1.08;;
41661;SDS011;27351;45.992;12.666;2022-12-07T13:41:18;3.38;;;1.20;;
41661;SDS011;27351;45.992;12.666;2022-12-07T13:43:46;3.53;;;1.20;;
41661;SDS011;27351;45.992;12.666;2022-12-07T13:46:13;1.98;;;1.15;;
41661;SDS011;27351;45.992;12.666;2022-12-07T13:48:49;2.47;;;1.00;;
41661;SDS011;27351;45.992;12.666;2022-12-07T13:51:22;1.90;;;0.90;;
41661;SDS011;27351;45.992;12.666;2022-12-07T13:53:52;2.30;;;1.10;;
41661;SDS011;27351;45.992;12.666;2022-12-07T13:56:18;1.70;;;1.10;;
41661;SDS011;27351;45.992;12.666;2022-12-07T13:58:46;1.15;;;0.82;;
41661;SDS011;27351;45.992;12.666;2022-12-07T14:01:11;1.33;;;0.83;;
41661;SDS011;27351;45.992;12.666;2022-12-07T14:03:38;3.85;;;1.00;;
41661;SDS011;27351;45.992;12.666;2022-12-07T14:09:06;2.50;;;1.00;;
41661;SDS011;27351;45.992;12.666;2022-12-07T14:11:32;1.60;;;0.80;;
41661;SDS011;27351;45.992;12.666;2022-12-07T14:13:58;2.00;;;1.00;;
41661;SDS011;27351;45.992;12.666;2022-12-07T14:16:26;2.15;;;0.73;;
41661;SDS011;27351;45.992;12.666;2022-12-07T14:18:56;4.57;;;0.93;;
41661;SDS011;27351;45.992;12.666;2022-12-07T14:21:23;9.83;;;4.17;;
41661;SDS011;27351;45.992;12.666;2022-12-07T14:24:04;3.17;;;1.67;;
41661;SDS011;27351;45.992;12.666;2022-12-07T14:26:33;2.20;;;0.88;;
41661;SDS011;27351;45.992;12.666;2022-12-07T14:31:42;1.60;;;1.00;;
41661;SDS011;27351;45.992;12.666;2022-12-07T14:34:11;3.03;;;1.10;;
41661;SDS011;27351;45.992;12.666;2022-12-07T14:36:36;3.22;;;1.20;;
41661;SDS011;27351;45.992;12.666;2022-12-07T14:39:02;2.67;;;1.00;;
41661;SDS011;27351;45.992;12.666;2022-12-07T14:41:27;3.57;;;1.13;;
41661;SDS011;27351;45.992;12.666;2022-12-07T14:44:12;3.30;;;1.10;;
41661;SDS011;27351;45.992;12.666;2022-12-07T14:46:38;3.45;;;1.40;;
41661;SDS011;27351;45.992;12.666;2022-12-07T14:49:03;14.80;;;7.17;;
41661;SDS011;27351;45.992;12.666;2022-12-07T14:51:29;15.93;;;7.10;;
41661;SDS011;27351;45.992;12.666;2022-12-07T14:53:54;6.37;;;2.53;;
41661;SDS011;27351;45.992;12.666;2022-12-07T14:56:20;3.65;;;1.80;;
41661;SDS011;27351;45.992;12.666;2022-12-07T14:58:46;3.92;;;2.22;;
41661;SDS011;27351;45.992;12.666;2022-12-07T15:01:13;3.35;;;1.85;;
41661;SDS011;27351;45.992;12.666;2022-12-07T15:03:39;4.87;;;1.80;;
41661;SDS011;27351;45.992;12.666;2022-12-07T15:06:05;3.70;;;1.37;;
41661;SDS011;27351;45.992;12.666;2022-12-07T15:08:31;4.35;;;1.40;;
41661;SDS011;27351;45.992;12.666;2022-12-07T15:10:56;3.77;;;1.53;;
41661;SDS011;27351;45.992;12.666;2022-12-07T15:13:22;4.70;;;1.50;;
41661;SDS011;27351;45.992;12.666;2022-12-07T15:16:08;4.68;;;1.38;;
41661;SDS011;27351;45.992;12.666;2022-12-07T15:18:35;3.63;;;1.27;;
41661;SDS011;27351;45.992;12.666;2022-12-07T15:21:01;5.90;;;1.50;;
41661;SDS011;27351;45.992;12.666;2022-12-07T15:23:26;5.00;;;1.90;;
41661;SDS011;27351;45.992;12.666;2022-12-07T15:25:52;3.63;;;1.97;;
41661;SDS011;27351;45.992;12.666;2022-12-07T15:28:18;6.33;;;2.40;;
41661;SDS011;27351;45.992;12.666;2022-12-07T15:30:44;8.13;;;3.43;;
41661;SDS011;27351;45.992;12.666;2022-12-07T15:33:10;8.38;;;3.58;;
41661;SDS011;27351;45.992;12.666;2022-12-07T15:35:39;11.55;;;3.72;;
41661;SDS011;27351;45.992;12.666;2022-12-07T15:38:05;16.27;;;3.90;;
41661;SDS011;27351;45.992;12.666;2022-12-07T15:40:31;11.00;;;4.20;;
41661;SDS011;27351;45.992;12.666;2022-12-07T15:42:56;9.27;;;3.75;;
41661;SDS011;27351;45.992;12.666;2022-12-07T15:45:22;8.40;;;3.67;;
41661;SDS011;27351;45.992;12.666;2022-12-07T15:47:48;8.93;;;4.80;;
41661;SDS011;27351;45.992;12.666;2022-12-07T15:50:14;6.90;;;3.90;;
41661;SDS011;27351;45.992;12.666;2022-12-07T15:52:40;7.88;;;3.95;;
41661;SDS011;27351;45.992;12.666;2022-12-07T15:55:06;9.02;;;4.93;;
41661;SDS011;27351;45.992;12.666;2022-12-07T15:57:32;10.25;;;6.25;;
41661;SDS011;27351;45.992;12.666;2022-12-07T15:59:58;9.10;;;5.07;;
41661;SDS011;27351;45.992;12.666;2022-12-07T16:02:24;9.52;;;5.75;;
41661;SDS011;27351;45.992;12.666;2022-12-07T16:04:50;10.68;;;6.57;;
41661;SDS011;27351;45.992;12.666;2022-12-07T16:07:16;11.80;;;6.97;;
41661;SDS011;27351;45.992;12.666;2022-12-07T16:09:43;9.57;;;6.05;;
41661;SDS011;27351;45.992;12.666;2022-12-07T16:12:09;10.80;;;5.75;;
41661;SDS011;27351;45.992;12.666;2022-12-07T16:14:35;11.48;;;6.32;;
41661;SDS011;27351;45.992;12.666;2022-12-07T16:17:01;10.13;;;5.88;;
41661;SDS011;27351;45.992;12.666;2022-12-07T16:19:26;13.73;;;7.90;;